sensor_id;sensor_type;location;lat;lon;timestamp;P1;durP1;ratioP1;P2;durP2;ratioP2
20379;SDS011;10349;48.666;8.948;2023-03-17T00:01:07;6.10;;;5.13;;
20379;SDS011;10349;48.666;8.948;2023-03-17T00:03:38;5.97;;;5.30;;
20379;SDS011;10349;48.666;8.948;2023-03-17T00:06:06;7.83;;;4.80;;
20379;SDS011;10349;48.666;8.948;2023-03-17T00:08:40;6.20;;;4.93;;
20379;SDS011;10349;48.666;8.948;2023-03-17T00:11:14;6.17;;;4.90;;
20379;SDS011;10349;48.666;8.948;2023-03-17T00:13:41;11.07;;;5.27;;
20379;SDS011;10349;48.666;8.948;2023-03-17T00:16:24;6.80;;;5.60;;
20379;SDS011;10349;48.666;8.948;2023-03-17T00:18:51;6.97;;;5.23;;
20379;SDS011;10349;48.666;8.948;2023-03-17T00:21:24;11.93;;;5.40;;
20379;SDS011;10349;48.666;8.948;2023-03-17T00:23:54;5.03;;;4.60;;
20379;SDS011;10349;48.666;8.948;2023-03-17T00:26:21;5.53;;;5.07;;
20379;SDS011;10349;48.666;8.948;2023-03-17T00:28:48;8.33;;;5.00;;
20379;SDS011;10349;48.666;8.948;2023-03-17T00:31:18;11.60;;;5.37;;
20379;SDS011;10349;48.666;8.948;2023-03-17T00:33:46;6.60;;;4.30;;
20379;SDS011;10349;48.666;8.948;2023-03-17T00:36:15;5.70;;;5.20;;
20379;SDS011;10349;48.666;8.948;2023-03-17T00:38:45;7.67;;;5.53;;
20379;SDS011;10349;48.666;8.948;2023-03-17T00:41:11;6.83;;;5.77;;
20379;SDS011;10349;48.666;8.948;2023-03-17T00:43:38;12.33;;;6.20;;
20379;SDS011;10349;48.666;8.948;2023-03-17T00:46:12;8.37;;;4.90;;
20379;SDS011;10349;48.666;8.948;2023-03-17T00:48:41;6.70;;;5.33;;
20379;SDS011;10349;48.666;8.948;2023-03-17T00:51:09;5.30;;;4.60;;
20379;SDS011;10349;48.666;8.948;2023-03-17T00:53:35;7.30;;;4.73;;
20379;SDS011;10349;48.666;8.948;2023-03-17T00:56:02;5.77;;;4.97;;
20379;SDS011;10349;48.666;8.948;2023-03-17T00:58:29;5.50;;;4.97;;
20379;SDS011;10349;48.666;8.948;2023-03-17T01:00:58;5.60;;;5.10;;
20379;SDS011;10349;48.666;8.948;2023-03-17T01:03:25;6.63;;;6.03;;
20379;SDS011;10349;48.666;8.948;2023-03-17T01:05:54;5.00;;;4.53;;
20379;SDS011;10349;48.666;8.948;2023-03-17T01:08:23;7.13;;;4.37;;
20379;SDS011;10349;48.666;8.948;2023-03-17T01:10:50;5.10;;;4.60;;
20379;SDS011;10349;48.666;8.948;2023-03-17T01:13:17;5.10;;;3.80;;
20379;SDS011;10349;48.666;8.948;2023-03-17T01:15:44;4.53;;;4.20;;
20379;SDS011;10349;48.666;8.948;2023-03-17T01:18:11;4.50;;;4.10;;
20379;SDS011;10349;48.666;8.948;2023-03-17T01:20:40;7.23;;;4.03;;
20379;SDS011;10349;48.666;8.948;2023-03-17T01:23:07;8.53;;;4.10;;
20379;SDS011;10349;48.666;8.948;2023-03-17T01:25:33;4.83;;;4.43;;
20379;SDS011;10349;48.666;8.948;2023-03-17T01:27:59;5.57;;;4.77;;
20379;SDS011;10349;48.666;8.948;2023-03-17T01:30:30;7.33;;;4.70;;
20379;SDS011;10349;48.666;8.948;2023-03-17T01:33:04;4.40;;;3.47;;
20379;SDS011;10349;48.666;8.948;2023-03-17T01:35:32;9.33;;;5.50;;
20379;SDS011;10349;48.666;8.948;2023-03-17T01:37:59;5.63;;;4.60;;
20379;SDS011;10349;48.666;8.948;2023-03-17T01:40:32;6.40;;;4.03;;
20379;SDS011;10349;48.666;8.948;2023-03-17T01:48:40;5.57;;;4.37;;
20379;SDS011;10349;48.666;8.948;2023-03-17T01:51:15;5.50;;;5.10;;
20379;SDS011;10349;48.666;8.948;2023-03-17T01:53:45;6.23;;;5.03;;
20379;SDS011;10349;48.666;8.948;2023-03-17T01:56:14;3.80;;;3.50;;
20379;SDS011;10349;48.666;8.948;2023-03-17T01:58:40;5.37;;;4.80;;
20379;SDS011;10349;48.666;8.948;2023-03-17T02:01:08;6.13;;;4.90;;
20379;SDS011;10349;48.666;8.948;2023-03-17T02:03:35;5.73;;;4.50;;
20379;SDS011;10349;48.666;8.948;2023-03-17T02:06:00;4.63;;;4.33;;
20379;SDS011;10349;48.666;8.948;2023-03-17T02:08:26;5.10;;;4.57;;
20379;SDS011;10349;48.666;8.948;2023-03-17T02:10:52;4.80;;;3.97;;
20379;SDS011;10349;48.666;8.948;2023-03-17T02:13:20;4.93;;;3.93;;
20379;SDS011;10349;48.666;8.948;2023-03-17T02:15:51;7.10;;;4.60;;
20379;SDS011;10349;48.666;8.948;2023-03-17T02:18:18;5.60;;;4.70;;
20379;SDS011;10349;48.666;8.948;2023-03-17T02:23:14;3.50;;;3.20;;
20379;SDS011;10349;48.666;8.948;2023-03-17T02:25:43;3.57;;;3.30;;
20379;SDS011;10349;48.666;8.948;2023-03-17T02:28:18;5.60;;;4.00;;
20379;SDS011;10349;48.666;8.948;2023-03-17T02:30:50;3.23;;;3.03;;
20379;SDS011;10349;48.666;8.948;2023-03-17T02:33:16;4.43;;;4.03;;
20379;SDS011;10349;48.666;8.948;2023-03-17T02:35:43;3.83;;;3.53;;
20379;SDS011;10349;48.666;8.948;2023-03-17T02:38:08;5.47;;;4.67;;
20379;SDS011;10349;48.666;8.948;2023-03-17T02:40:37;4.30;;;3.90;;
20379;SDS011;10349;48.666;8.948;2023-03-17T02:43:04;5.13;;;4.10;;
20379;SDS011;10349;48.666;8.948;2023-03-17T02:45:29;4.00;;;3.10;;
20379;SDS011;10349;48.666;8.948;2023-03-17T02:47:56;3.57;;;3.27;;
20379;SDS011;10349;48.666;8.948;2023-03-17T02:50:24;3.83;;;3.47;;
20379;SDS011;10349;48.666;8.948;2023-03-17T02:52:51;8.80;;;4.40;;
20379;SDS011;10349;48.666;8.948;2023-03-17T02:55:17;4.60;;;4.20;;
20379;SDS011;10349;48.666;8.948;2023-03-17T02:57:44;3.60;;;3.30;;
20379;SDS011;10349;48.666;8.948;2023-03-17T03:00:10;4.70;;;3.67;;
20379;SDS011;10349;48.666;8.948;2023-03-17T03:02:37;4.93;;;4.37;;
20379;SDS011;10349;48.666;8.948;2023-03-17T03:05:03;6.00;;;4.40;;
20379;SDS011;10349;48.666;8.948;2023-03-17T03:07:30;4.23;;;3.93;;
20379;SDS011;10349;48.666;8.948;2023-03-17T03:09:56;3.20;;;2.73;;
20379;SDS011;10349;48.666;8.948;2023-03-17T03:12:23;3.80;;;3.60;;
20379;SDS011;10349;48.666;8.948;2023-03-17T03:14:49;3.43;;;3.20;;
20379;SDS011;10349;48.666;8.948;2023-03-17T03:17:15;3.00;;;2.80;;
20379;SDS011;10349;48.666;8.948;2023-03-17T03:19:40;3.47;;;3.17;;
20379;SDS011;10349;48.666;8.948;2023-03-17T03:22:06;5.47;;;3.10;;
20379;SDS011;10349;48.666;8.948;2023-03-17T03:24:34;3.77;;;3.47;;
20379;SDS011;10349;48.666;8.948;2023-03-17T03:27:00;3.53;;;3.23;;
20379;SDS011;10349;48.666;8.948;2023-03-17T03:29:26;4.10;;;3.80;;
20379;SDS011;10349;48.666;8.948;2023-03-17T03:31:51;3.67;;;3.47;;
20379;SDS011;10349;48.666;8.948;2023-03-17T03:34:17;3.60;;;3.30;;
20379;SDS011;10349;48.666;8.948;2023-03-17T03:36:42;4.40;;;3.47;;
20379;SDS011;10349;48.666;8.948;2023-03-17T03:39:08;5.07;;;3.80;;
20379;SDS011;10349;48.666;8.948;2023-03-17T03:41:34;3.67;;;3.37;;
20379;SDS011;10349;48.666;8.948;2023-03-17T03:44:01;3.93;;;3.63;;
20379;SDS011;10349;48.666;8.948;2023-03-17T03:46:26;3.97;;;3.67;;
20379;SDS011;10349;48.666;8.948;2023-03-17T03:48:52;4.90;;;3.27;;
20379;SDS011;10349;48.666;8.948;2023-03-17T03:51:18;3.60;;;3.30;;
20379;SDS011;10349;48.666;8.948;2023-03-17T03:53:45;4.20;;;3.73;;
20379;SDS011;10349;48.666;8.948;2023-03-17T03:56:12;3.50;;;3.30;;
20379;SDS011;10349;48.666;8.948;2023-03-17T03:58:38;3.83;;;3.50;;
20379;SDS011;10349;48.666;8.948;2023-03-17T04:01:04;6.67;;;4.43;;
20379;SDS011;10349;48.666;8.948;2023-03-17T04:03:30;4.73;;;4.27;;
20379;SDS011;10349;48.666;8.948;2023-03-17T04:05:57;4.40;;;4.00;;
20379;SDS011;10349;48.666;8.948;2023-03-17T04:08:24;3.10;;;2.73;;
20379;SDS011;10349;48.666;8.948;2023-03-17T04:10:51;3.93;;;3.40;;
20379;SDS011;10349;48.666;8.948;2023-03-17T04:13:17;7.00;;;4.17;;
20379;SDS011;10349;48.666;8.948;2023-03-17T04:15:42;5.73;;;3.20;;
20379;SDS011;10349;48.666;8.948;2023-03-17T04:18:08;4.30;;;3.90;;
20379;SDS011;10349;48.666;8.948;2023-03-17T04:20:35;3.97;;;3.67;;
20379;SDS011;10349;48.666;8.948;2023-03-17T04:23:03;5.77;;;3.13;;
20379;SDS011;10349;48.666;8.948;2023-03-17T04:25:30;4.03;;;3.83;;
20379;SDS011;10349;48.666;8.948;2023-03-17T04:27:56;3.70;;;3.40;;
20379;SDS011;10349;48.666;8.948;2023-03-17T04:30:22;3.73;;;3.43;;
20379;SDS011;10349;48.666;8.948;2023-03-17T04:32:48;9.43;;;3.20;;
20379;SDS011;10349;48.666;8.948;2023-03-17T04:35:15;3.63;;;3.33;;
20379;SDS011;10349;48.666;8.948;2023-03-17T04:37:42;5.43;;;3.77;;
20379;SDS011;10349;48.666;8.948;2023-03-17T04:40:09;4.00;;;3.63;;
20379;SDS011;10349;48.666;8.948;2023-03-17T04:42:36;7.27;;;4.67;;
20379;SDS011;10349;48.666;8.948;2023-03-17T04:45:02;9.93;;;5.40;;
20379;SDS011;10349;48.666;8.948;2023-03-17T04:47:29;10.47;;;5.40;;
20379;SDS011;10349;48.666;8.948;2023-03-17T04:49:55;6.63;;;5.83;;
20379;SDS011;10349;48.666;8.948;2023-03-17T04:52:22;6.10;;;5.50;;
20379;SDS011;10349;48.666;8.948;2023-03-17T04:54:47;5.20;;;4.90;;
20379;SDS011;10349;48.666;8.948;2023-03-17T04:57:13;6.40;;;5.87;;
20379;SDS011;10349;48.666;8.948;2023-03-17T04:59:39;5.13;;;4.63;;
20379;SDS011;10349;48.666;8.948;2023-03-17T05:02:04;4.27;;;3.80;;
20379;SDS011;10349;48.666;8.948;2023-03-17T05:04:31;3.73;;;3.43;;
20379;SDS011;10349;48.666;8.948;2023-03-17T05:06:58;7.83;;;3.80;;
20379;SDS011;10349;48.666;8.948;2023-03-17T05:09:24;4.90;;;4.07;;
20379;SDS011;10349;48.666;8.948;2023-03-17T05:11:52;5.07;;;4.63;;
20379;SDS011;10349;48.666;8.948;2023-03-17T05:14:18;7.37;;;4.80;;
20379;SDS011;10349;48.666;8.948;2023-03-17T05:16:48;6.37;;;4.40;;
20379;SDS011;10349;48.666;8.948;2023-03-17T05:19:15;5.00;;;4.37;;
20379;SDS011;10349;48.666;8.948;2023-03-17T05:21:41;10.47;;;5.83;;
20379;SDS011;10349;48.666;8.948;2023-03-17T05:24:07;7.77;;;5.60;;
20379;SDS011;10349;48.666;8.948;2023-03-17T05:26:33;4.93;;;4.53;;
20379;SDS011;10349;48.666;8.948;2023-03-17T05:28:59;4.70;;;4.00;;
20379;SDS011;10349;48.666;8.948;2023-03-17T05:31:24;4.67;;;3.87;;
20379;SDS011;10349;48.666;8.948;2023-03-17T05:33:50;6.43;;;2.93;;
20379;SDS011;10349;48.666;8.948;2023-03-17T05:36:16;4.60;;;4.07;;
20379;SDS011;10349;48.666;8.948;2023-03-17T05:38:42;5.23;;;3.50;;
20379;SDS011;10349;48.666;8.948;2023-03-17T05:41:08;4.70;;;4.13;;
20379;SDS011;10349;48.666;8.948;2023-03-17T05:43:35;4.23;;;3.87;;
20379;SDS011;10349;48.666;8.948;2023-03-17T05:46:01;4.23;;;3.90;;
20379;SDS011;10349;48.666;8.948;2023-03-17T05:48:28;3.50;;;3.20;;
20379;SDS011;10349;48.666;8.948;2023-03-17T05:50:53;3.90;;;3.40;;
20379;SDS011;10349;48.666;8.948;2023-03-17T05:53:19;3.37;;;3.07;;
20379;SDS011;10349;48.666;8.948;2023-03-17T05:55:45;4.50;;;3.30;;
20379;SDS011;10349;48.666;8.948;2023-03-17T05:58:11;3.93;;;3.30;;
20379;SDS011;10349;48.666;8.948;2023-03-17T06:00:39;13.43;;;3.50;;
20379;SDS011;10349;48.666;8.948;2023-03-17T06:03:06;3.40;;;3.10;;
20379;SDS011;10349;48.666;8.948;2023-03-17T06:05:32;9.27;;;3.90;;
20379;SDS011;10349;48.666;8.948;2023-03-17T06:07:58;8.87;;;4.93;;
20379;SDS011;10349;48.666;8.948;2023-03-17T06:10:23;4.90;;;4.57;;
20379;SDS011;10349;48.666;8.948;2023-03-17T06:12:49;5.93;;;4.50;;
20379;SDS011;10349;48.666;8.948;2023-03-17T06:15:15;8.40;;;4.10;;
20379;SDS011;10349;48.666;8.948;2023-03-17T06:17:41;3.43;;;3.13;;
20379;SDS011;10349;48.666;8.948;2023-03-17T06:20:09;3.30;;;2.60;;
20379;SDS011;10349;48.666;8.948;2023-03-17T06:22:35;4.20;;;3.80;;
20379;SDS011;10349;48.666;8.948;2023-03-17T06:25:02;5.90;;;3.70;;
20379;SDS011;10349;48.666;8.948;2023-03-17T06:27:28;3.37;;;3.10;;
20379;SDS011;10349;48.666;8.948;2023-03-17T06:29:54;4.70;;;4.27;;
20379;SDS011;10349;48.666;8.948;2023-03-17T06:32:21;5.17;;;3.27;;
20379;SDS011;10349;48.666;8.948;2023-03-17T06:34:47;4.23;;;3.87;;
20379;SDS011;10349;48.666;8.948;2023-03-17T06:37:14;5.20;;;4.20;;
20379;SDS011;10349;48.666;8.948;2023-03-17T06:39:40;5.53;;;4.17;;
20379;SDS011;10349;48.666;8.948;2023-03-17T06:42:06;4.37;;;3.63;;
20379;SDS011;10349;48.666;8.948;2023-03-17T06:44:35;12.27;;;4.63;;
20379;SDS011;10349;48.666;8.948;2023-03-17T06:47:01;8.33;;;3.67;;
20379;SDS011;10349;48.666;8.948;2023-03-17T06:49:27;3.77;;;3.47;;
20379;SDS011;10349;48.666;8.948;2023-03-17T06:51:53;3.80;;;3.23;;
20379;SDS011;10349;48.666;8.948;2023-03-17T06:54:18;4.93;;;4.03;;
20379;SDS011;10349;48.666;8.948;2023-03-17T06:56:45;4.23;;;3.93;;
20379;SDS011;10349;48.666;8.948;2023-03-17T06:59:12;5.40;;;3.80;;
20379;SDS011;10349;48.666;8.948;2023-03-17T07:01:39;10.00;;;4.87;;
20379;SDS011;10349;48.666;8.948;2023-03-17T07:04:04;5.00;;;4.47;;
20379;SDS011;10349;48.666;8.948;2023-03-17T07:06:30;8.13;;;5.50;;
20379;SDS011;10349;48.666;8.948;2023-03-17T07:08:57;5.17;;;4.67;;
20379;SDS011;10349;48.666;8.948;2023-03-17T07:11:23;4.97;;;4.53;;
20379;SDS011;10349;48.666;8.948;2023-03-17T07:13:50;5.10;;;4.67;;
20379;SDS011;10349;48.666;8.948;2023-03-17T07:16:16;4.33;;;3.93;;
20379;SDS011;10349;48.666;8.948;2023-03-17T07:18:43;4.33;;;3.97;;
20379;SDS011;10349;48.666;8.948;2023-03-17T07:21:10;9.17;;;4.77;;
20379;SDS011;10349;48.666;8.948;2023-03-17T07:23:36;5.73;;;4.40;;
20379;SDS011;10349;48.666;8.948;2023-03-17T07:26:01;4.20;;;3.73;;
20379;SDS011;10349;48.666;8.948;2023-03-17T07:28:28;4.70;;;4.30;;
20379;SDS011;10349;48.666;8.948;2023-03-17T07:30:54;6.33;;;4.60;;
20379;SDS011;10349;48.666;8.948;2023-03-17T07:33:22;5.97;;;4.63;;
20379;SDS011;10349;48.666;8.948;2023-03-17T07:35:48;9.43;;;4.90;;
20379;SDS011;10349;48.666;8.948;2023-03-17T07:38:15;11.60;;;4.93;;
20379;SDS011;10349;48.666;8.948;2023-03-17T07:40:42;7.70;;;5.00;;
20379;SDS011;10349;48.666;8.948;2023-03-17T07:43:10;6.90;;;5.90;;
20379;SDS011;10349;48.666;8.948;2023-03-17T07:45:37;6.03;;;4.60;;
20379;SDS011;10349;48.666;8.948;2023-03-17T07:48:03;8.77;;;5.57;;
20379;SDS011;10349;48.666;8.948;2023-03-17T07:50:33;7.03;;;5.40;;
20379;SDS011;10349;48.666;8.948;2023-03-17T07:53:00;10.20;;;5.70;;
20379;SDS011;10349;48.666;8.948;2023-03-17T07:55:27;8.83;;;4.90;;
20379;SDS011;10349;48.666;8.948;2023-03-17T07:57:56;5.17;;;4.77;;
20379;SDS011;10349;48.666;8.948;2023-03-17T08:00:22;9.53;;;5.47;;
20379;SDS011;10349;48.666;8.948;2023-03-17T08:02:48;5.20;;;4.77;;
20379;SDS011;10349;48.666;8.948;2023-03-17T08:05:15;7.43;;;4.33;;
20379;SDS011;10349;48.666;8.948;2023-03-17T08:07:41;5.90;;;4.20;;
20379;SDS011;10349;48.666;8.948;2023-03-17T08:10:08;4.70;;;4.33;;
20379;SDS011;10349;48.666;8.948;2023-03-17T08:12:36;4.47;;;4.13;;
20379;SDS011;10349;48.666;8.948;2023-03-17T08:15:02;4.53;;;3.97;;
20379;SDS011;10349;48.666;8.948;2023-03-17T08:17:28;3.90;;;3.60;;
20379;SDS011;10349;48.666;8.948;2023-03-17T08:19:55;4.70;;;4.03;;
20379;SDS011;10349;48.666;8.948;2023-03-17T08:22:21;3.57;;;3.27;;
20379;SDS011;10349;48.666;8.948;2023-03-17T08:24:48;2.93;;;2.73;;
20379;SDS011;10349;48.666;8.948;2023-03-17T08:27:14;4.77;;;3.20;;
20379;SDS011;10349;48.666;8.948;2023-03-17T08:29:40;3.03;;;2.83;;
20379;SDS011;10349;48.666;8.948;2023-03-17T08:32:06;3.13;;;2.93;;
20379;SDS011;10349;48.666;8.948;2023-03-17T08:34:32;5.40;;;2.73;;
20379;SDS011;10349;48.666;8.948;2023-03-17T08:37:00;3.30;;;2.60;;
20379;SDS011;10349;48.666;8.948;2023-03-17T08:39:26;3.37;;;3.07;;
20379;SDS011;10349;48.666;8.948;2023-03-17T08:41:51;3.50;;;3.10;;
20379;SDS011;10349;48.666;8.948;2023-03-17T08:44:17;3.20;;;2.90;;
20379;SDS011;10349;48.666;8.948;2023-03-17T08:46:44;3.90;;;3.10;;
20379;SDS011;10349;48.666;8.948;2023-03-17T08:49:11;2.90;;;2.70;;
20379;SDS011;10349;48.666;8.948;2023-03-17T08:51:37;3.40;;;3.00;;
20379;SDS011;10349;48.666;8.948;2023-03-17T08:54:03;5.60;;;3.40;;
20379;SDS011;10349;48.666;8.948;2023-03-17T08:56:31;3.93;;;3.63;;
20379;SDS011;10349;48.666;8.948;2023-03-17T08:58:57;2.50;;;2.30;;
20379;SDS011;10349;48.666;8.948;2023-03-17T09:01:23;3.07;;;2.77;;
20379;SDS011;10349;48.666;8.948;2023-03-17T09:03:50;4.83;;;2.87;;
20379;SDS011;10349;48.666;8.948;2023-03-17T09:06:18;4.30;;;2.70;;
20379;SDS011;10349;48.666;8.948;2023-03-17T09:08:45;5.43;;;2.77;;
20379;SDS011;10349;48.666;8.948;2023-03-17T09:11:15;2.27;;;2.07;;
20379;SDS011;10349;48.666;8.948;2023-03-17T09:13:43;2.47;;;2.27;;
20379;SDS011;10349;48.666;8.948;2023-03-17T09:16:10;2.33;;;1.90;;
20379;SDS011;10349;48.666;8.948;2023-03-17T09:18:37;3.83;;;2.90;;
20379;SDS011;10349;48.666;8.948;2023-03-17T09:21:03;4.23;;;3.20;;
20379;SDS011;10349;48.666;8.948;2023-03-17T09:23:29;2.57;;;2.37;;
20379;SDS011;10349;48.666;8.948;2023-03-17T09:25:56;3.23;;;2.80;;
20379;SDS011;10349;48.666;8.948;2023-03-17T09:28:22;2.97;;;2.47;;
20379;SDS011;10349;48.666;8.948;2023-03-17T09:30:48;2.33;;;2.13;;
20379;SDS011;10349;48.666;8.948;2023-03-17T09:33:14;2.90;;;2.70;;
20379;SDS011;10349;48.666;8.948;2023-03-17T09:35:40;2.47;;;2.27;;
20379;SDS011;10349;48.666;8.948;2023-03-17T09:38:06;4.33;;;2.40;;
20379;SDS011;10349;48.666;8.948;2023-03-17T09:40:35;2.60;;;2.40;;
20379;SDS011;10349;48.666;8.948;2023-03-17T09:45:46;2.50;;;2.30;;
20379;SDS011;10349;48.666;8.948;2023-03-17T09:50:43;2.33;;;2.23;;
20379;SDS011;10349;48.666;8.948;2023-03-17T09:53:35;3.47;;;2.70;;
20379;SDS011;10349;48.666;8.948;2023-03-17T09:56:17;2.30;;;2.20;;
20379;SDS011;10349;48.666;8.948;2023-03-17T09:58:51;2.87;;;2.47;;
20379;SDS011;10349;48.666;8.948;2023-03-17T10:01:21;2.50;;;2.37;;
20379;SDS011;10349;48.666;8.948;2023-03-17T10:03:47;2.50;;;2.27;;
20379;SDS011;10349;48.666;8.948;2023-03-17T10:11:48;3.73;;;2.20;;
20379;SDS011;10349;48.666;8.948;2023-03-17T10:17:30;2.70;;;2.03;;
20379;SDS011;10349;48.666;8.948;2023-03-17T10:22:29;5.33;;;2.50;;
20379;SDS011;10349;48.666;8.948;2023-03-17T10:25:17;3.63;;;2.80;;
20379;SDS011;10349;48.666;8.948;2023-03-17T10:27:47;1.93;;;1.83;;
20379;SDS011;10349;48.666;8.948;2023-03-17T10:30:20;3.50;;;2.87;;
20379;SDS011;10349;48.666;8.948;2023-03-17T10:32:47;3.23;;;2.33;;
20379;SDS011;10349;48.666;8.948;2023-03-17T10:35:14;7.63;;;2.40;;
20379;SDS011;10349;48.666;8.948;2023-03-17T10:37:41;2.80;;;2.20;;
20379;SDS011;10349;48.666;8.948;2023-03-17T10:40:17;3.77;;;2.13;;
20379;SDS011;10349;48.666;8.948;2023-03-17T10:42:47;2.53;;;2.27;;
20379;SDS011;10349;48.666;8.948;2023-03-17T10:45:26;4.03;;;2.10;;
20379;SDS011;10349;48.666;8.948;2023-03-17T10:47:55;2.50;;;2.30;;
20379;SDS011;10349;48.666;8.948;2023-03-17T10:50:26;2.83;;;2.63;;
20379;SDS011;10349;48.666;8.948;2023-03-17T10:55:32;5.53;;;2.70;;
20379;SDS011;10349;48.666;8.948;2023-03-17T10:58:15;4.13;;;3.73;;
20379;SDS011;10349;48.666;8.948;2023-03-17T11:00:54;2.63;;;2.43;;
20379;SDS011;10349;48.666;8.948;2023-03-17T11:03:44;2.17;;;1.97;;
20379;SDS011;10349;48.666;8.948;2023-03-17T11:06:18;2.57;;;2.37;;
20379;SDS011;10349;48.666;8.948;2023-03-17T11:11:28;2.30;;;2.03;;
20379;SDS011;10349;48.666;8.948;2023-03-17T11:16:36;2.03;;;1.83;;
20379;SDS011;10349;48.666;8.948;2023-03-17T11:19:04;8.50;;;2.40;;
20379;SDS011;10349;48.666;8.948;2023-03-17T11:21:46;2.23;;;2.03;;
20379;SDS011;10349;48.666;8.948;2023-03-17T11:24:28;3.57;;;2.00;;
20379;SDS011;10349;48.666;8.948;2023-03-17T11:26:58;3.23;;;3.03;;
20379;SDS011;10349;48.666;8.948;2023-03-17T11:32:35;6.53;;;2.67;;
20379;SDS011;10349;48.666;8.948;2023-03-17T11:49:27;2.10;;;1.97;;
20379;SDS011;10349;48.666;8.948;2023-03-17T11:52:21;2.20;;;2.00;;
20379;SDS011;10349;48.666;8.948;2023-03-17T12:00:18;1.60;;;1.50;;
20379;SDS011;10349;48.666;8.948;2023-03-17T12:02:57;2.10;;;2.00;;
20379;SDS011;10349;48.666;8.948;2023-03-17T12:05:47;2.87;;;2.20;;
20379;SDS011;10349;48.666;8.948;2023-03-17T12:08:21;2.67;;;2.37;;
20379;SDS011;10349;48.666;8.948;2023-03-17T12:10:58;2.27;;;2.00;;
20379;SDS011;10349;48.666;8.948;2023-03-17T12:13:45;3.17;;;2.00;;
20379;SDS011;10349;48.666;8.948;2023-03-17T12:19:12;1.60;;;1.50;;
20379;SDS011;10349;48.666;8.948;2023-03-17T12:21:48;2.63;;;1.53;;
20379;SDS011;10349;48.666;8.948;2023-03-17T12:27:14;2.33;;;1.97;;
20379;SDS011;10349;48.666;8.948;2023-03-17T12:29:56;1.57;;;1.47;;
20379;SDS011;10349;48.666;8.948;2023-03-17T12:32:25;2.00;;;1.70;;
20379;SDS011;10349;48.666;8.948;2023-03-17T12:35:21;2.57;;;2.07;;
20379;SDS011;10349;48.666;8.948;2023-03-17T12:37:52;1.77;;;1.67;;
20379;SDS011;10349;48.666;8.948;2023-03-17T12:40:21;1.67;;;1.57;;
20379;SDS011;10349;48.666;8.948;2023-03-17T12:46:04;3.23;;;2.23;;
20379;SDS011;10349;48.666;8.948;2023-03-17T12:54:27;2.73;;;1.60;;
20379;SDS011;10349;48.666;8.948;2023-03-17T12:57:00;2.10;;;1.50;;
20379;SDS011;10349;48.666;8.948;2023-03-17T12:59:29;1.63;;;1.53;;
20379;SDS011;10349;48.666;8.948;2023-03-17T13:01:56;1.50;;;1.40;;
20379;SDS011;10349;48.666;8.948;2023-03-17T13:04:35;2.03;;;1.37;;
20379;SDS011;10349;48.666;8.948;2023-03-17T13:07:08;1.83;;;1.37;;
20379;SDS011;10349;48.666;8.948;2023-03-17T13:20:37;1.37;;;1.27;;
20379;SDS011;10349;48.666;8.948;2023-03-17T13:35:45;5.80;;;1.20;;
20379;SDS011;10349;48.666;8.948;2023-03-17T13:41:30;1.77;;;1.40;;
20379;SDS011;10349;48.666;8.948;2023-03-17T13:46:50;1.50;;;1.40;;
20379;SDS011;10349;48.666;8.948;2023-03-17T13:51:43;1.60;;;1.40;;
20379;SDS011;10349;48.666;8.948;2023-03-17T13:56:56;1.43;;;1.17;;
20379;SDS011;10349;48.666;8.948;2023-03-17T14:02:24;2.23;;;1.30;;
20379;SDS011;10349;48.666;8.948;2023-03-17T14:04:55;1.10;;;0.90;;
20379;SDS011;10349;48.666;8.948;2023-03-17T14:07:43;1.03;;;0.93;;
20379;SDS011;10349;48.666;8.948;2023-03-17T14:10:15;1.17;;;1.07;;
20379;SDS011;10349;48.666;8.948;2023-03-17T14:15:49;1.13;;;0.80;;
20379;SDS011;10349;48.666;8.948;2023-03-17T14:18:31;0.90;;;0.73;;
20379;SDS011;10349;48.666;8.948;2023-03-17T14:21:03;1.10;;;1.00;;
20379;SDS011;10349;48.666;8.948;2023-03-17T14:23:31;1.00;;;0.80;;
20379;SDS011;10349;48.666;8.948;2023-03-17T14:25:59;0.90;;;0.70;;
20379;SDS011;10349;48.666;8.948;2023-03-17T14:28:31;1.30;;;1.17;;
20379;SDS011;10349;48.666;8.948;2023-03-17T14:30:59;1.70;;;1.60;;
20379;SDS011;10349;48.666;8.948;2023-03-17T14:33:31;1.87;;;1.53;;
20379;SDS011;10349;48.666;8.948;2023-03-17T14:36:06;1.40;;;1.27;;
20379;SDS011;10349;48.666;8.948;2023-03-17T14:38:37;3.73;;;1.40;;
20379;SDS011;10349;48.666;8.948;2023-03-17T14:43:38;1.87;;;1.33;;
20379;SDS011;10349;48.666;8.948;2023-03-17T14:46:06;1.33;;;1.23;;
20379;SDS011;10349;48.666;8.948;2023-03-17T14:48:39;2.53;;;1.53;;
20379;SDS011;10349;48.666;8.948;2023-03-17T14:51:22;1.23;;;1.13;;
20379;SDS011;10349;48.666;8.948;2023-03-17T14:53:49;2.87;;;2.00;;
20379;SDS011;10349;48.666;8.948;2023-03-17T14:56:20;2.03;;;1.83;;
20379;SDS011;10349;48.666;8.948;2023-03-17T14:58:49;5.30;;;1.53;;
20379;SDS011;10349;48.666;8.948;2023-03-17T15:01:21;3.77;;;1.80;;
20379;SDS011;10349;48.666;8.948;2023-03-17T15:06:32;1.83;;;1.73;;
20379;SDS011;10349;48.666;8.948;2023-03-17T15:09:15;2.93;;;1.50;;
20379;SDS011;10349;48.666;8.948;2023-03-17T15:11:43;1.20;;;1.10;;
20379;SDS011;10349;48.666;8.948;2023-03-17T15:14:31;1.83;;;1.13;;
20379;SDS011;10349;48.666;8.948;2023-03-17T15:16:57;1.57;;;1.40;;
20379;SDS011;10349;48.666;8.948;2023-03-17T15:19:27;4.33;;;1.40;;
20379;SDS011;10349;48.666;8.948;2023-03-17T15:27:47;6.23;;;2.30;;
20379;SDS011;10349;48.666;8.948;2023-03-17T15:30:13;2.60;;;2.40;;
20379;SDS011;10349;48.666;8.948;2023-03-17T15:32:39;2.97;;;2.30;;
20379;SDS011;10349;48.666;8.948;2023-03-17T15:35:06;3.87;;;3.47;;
20379;SDS011;10349;48.666;8.948;2023-03-17T15:37:35;2.17;;;1.97;;
20379;SDS011;10349;48.666;8.948;2023-03-17T15:40:00;1.57;;;1.43;;
20379;SDS011;10349;48.666;8.948;2023-03-17T15:42:28;2.20;;;2.10;;
20379;SDS011;10349;48.666;8.948;2023-03-17T15:44:55;1.63;;;1.37;;
20379;SDS011;10349;48.666;8.948;2023-03-17T15:47:24;1.47;;;1.33;;
20379;SDS011;10349;48.666;8.948;2023-03-17T15:49:53;1.43;;;1.33;;
20379;SDS011;10349;48.666;8.948;2023-03-17T15:52:23;2.13;;;1.80;;
20379;SDS011;10349;48.666;8.948;2023-03-17T15:54:54;1.30;;;1.20;;
20379;SDS011;10349;48.666;8.948;2023-03-17T15:57:22;1.83;;;1.70;;
20379;SDS011;10349;48.666;8.948;2023-03-17T15:59:48;2.20;;;1.60;;
20379;SDS011;10349;48.666;8.948;2023-03-17T16:05:03;2.07;;;1.90;;
20379;SDS011;10349;48.666;8.948;2023-03-17T16:07:36;1.67;;;1.30;;
20379;SDS011;10349;48.666;8.948;2023-03-17T16:10:12;2.13;;;1.83;;
20379;SDS011;10349;48.666;8.948;2023-03-17T16:12:40;3.73;;;2.27;;
20379;SDS011;10349;48.666;8.948;2023-03-17T16:15:06;2.60;;;2.40;;
20379;SDS011;10349;48.666;8.948;2023-03-17T16:17:33;3.37;;;2.60;;
20379;SDS011;10349;48.666;8.948;2023-03-17T16:19:59;5.00;;;2.77;;
20379;SDS011;10349;48.666;8.948;2023-03-17T16:22:38;2.67;;;2.47;;
20379;SDS011;10349;48.666;8.948;2023-03-17T16:28:06;2.57;;;2.37;;
20379;SDS011;10349;48.666;8.948;2023-03-17T16:30:45;2.10;;;2.00;;
20379;SDS011;10349;48.666;8.948;2023-03-17T16:33:45;2.50;;;2.30;;
20379;SDS011;10349;48.666;8.948;2023-03-17T16:36:04;2.47;;;2.27;;
20379;SDS011;10349;48.666;8.948;2023-03-17T16:38:31;3.97;;;2.33;;
20379;SDS011;10349;48.666;8.948;2023-03-17T16:40:59;1.87;;;1.77;;
20379;SDS011;10349;48.666;8.948;2023-03-17T16:43:31;11.03;;;2.60;;
20379;SDS011;10349;48.666;8.948;2023-03-17T16:45:59;2.23;;;2.03;;
20379;SDS011;10349;48.666;8.948;2023-03-17T16:48:27;3.90;;;2.13;;
20379;SDS011;10349;48.666;8.948;2023-03-17T16:50:54;2.60;;;2.03;;
20379;SDS011;10349;48.666;8.948;2023-03-17T16:53:20;2.00;;;1.43;;
20379;SDS011;10349;48.666;8.948;2023-03-17T16:55:46;1.77;;;1.67;;
20379;SDS011;10349;48.666;8.948;2023-03-17T16:58:33;5.33;;;3.27;;
20379;SDS011;10349;48.666;8.948;2023-03-17T17:01:01;7.30;;;4.90;;
20379;SDS011;10349;48.666;8.948;2023-03-17T17:03:30;4.37;;;3.97;;
20379;SDS011;10349;48.666;8.948;2023-03-17T17:05:56;1.80;;;1.70;;